Atlanta, TX

9:44 PM CDT on May 22, 2015 (GMT -0500)
RAWS | | Change Station
CLOSE
Current Station
Personal Weather Station
Location: Kildare, TX
Elevation: 500 ft
Nearby Weather Stations
Active Advisory: Flood Warning Active Notice: Public Information Statement

Elev 500 ft 33.01 °N, 94.36 °W | Updated 39 minutes ago

Overcast
Overcast
69 °F
Feels Like 69 °F
N
4
Wind Variable Wind from East
Gusts 8.0 mph

Today
High -- | Low -- °F
--% Chance of Precip.
Yesterday
High -- | Low -- °F
Precip. -- in
6:12 AM 8:14 PM
Waxing Crescent, 26% visible
Pressure 30.16 in
Visibility 10.0 miles
Clouds Overcast 10000 ft
Dew Point 61 °F
Humidity 76%
Rainfall in
Snow Depth Not available.
UV 0 out of 12
Pollen 5.10 out of 12
Air Quality Not available.
Flu Activity Sporadic
METAR KTXK 230153Z 10004KT 10SM OVC100 20/14 A3016 RMK AO2 SLP212 T02000144

More Conditions Fewer Conditions

Pressure 30.16 in
Visibility 10.0 miles
Clouds Overcast 10000 ft
Dew Point 61 °F
Humidity 76%
Rainfall in
Snow Depth Not available.
UV 0 out of 12
Pollen 5.10 out of 12
Air Quality Not available.
Flu Activity Sporadic
METAR KTXK 230153Z 10004KT 10SM OVC100 20/14 A3016 RMK AO2 SLP212 T02000144

More Conditions Fewer Conditions

10-Day Weather Forecast

Almanac

Astronomy

May. 22, 2015 Rise Set
Actual Time
Civil Twilight
Nautical Twilight
Astronomical Twilight
Moon
Length of Visible Light
Length of Day
Tomorrow will be .
, % of the Moon is Illuminated

Today's Extremes

State Highs State Lows

Community

WunderPhotos

Upload Photos

1,823,371 photos uploaded!

WunderBlogs® & News

Nearby

Air Quality

  Air Quality AQ Index Pollutant
Not available.

Snow Depth

Station Depth Elevation

Earthquake Activity

City Distance Mag. Time & Date
Minimum magnitude displayed is 2.5.

Coastal Water Temperatures

Place Temperature

Stations

Nearby Weather Stations

Station Location Temp. Windchill Dew Point Humidity Wind Precip. Elev Updated Type
                   
Flood Warning
Statement as of 9:01 AM CDT on May 22, 2015

The Flood Warning continues for
the Black Cypress Bayou at Jefferson, Texas.
* From Monday morning to Tuesday morning... or until the warning is
cancelled.
* At 800 am Friday the stage was 11.8 feet.
* Minor flooding is forecast.
* Flood stage is 13 feet.
* Forecast... The Bayou is expected to rise to near flood stage Monday
morning.
* Impact... at 13.0 feet... lowland flooding will affect mainly Timber
resources.


Lat... Lon 3297 9448 3275 9425 3275 9433 3278 9440 3289 9450





900 am CDT Fri may 22 2015

The Flood Warning continues for
the Sulphur river near Naples, Texas.
* Until further notice... or until the warning is cancelled.
* At 700 am Friday the stage was 26.0 feet.
* Minor flooding is occurring and minor flooding is forecast.
* Flood stage is 22 feet.
* Forecast... the river will continue rising to near 28.5 feet by
Monday morning then begin falling.


Lat... Lon 3331 9466 3328 9456 3330 9447 3324 9462 3326 9466